• Join FlightAware (Why Join?)
  • Login
  • US Flag 
05:32PM EST


 

Airport Tracker/Info


-or-


 

Live Flight TrackerFlight Track Log ✈ N415JA ✈ 12-Feb-2014 ✈ KBOS - KMIA

Flight Track Log - Related Links

Times and Time Zones

All times are in EST time to prevent confusion due to time zone crossing. See the N415JA flight status page for this flight to view local times or setup timezone preferences in your user account.

Time Position Orientation Groundspeed Altitude Reporting Facility
EST Latitude Longitude Course Direction KTS MPH feet Rate Location/Type
02:46PM 42.3667 -70.9833 90° East 145 167 600  Level KA90
02:46PM 42.3667 -70.9667 90° East 157 181 1,900 2,460 Climbing KA90
02:47PM 42.3833 -70.8833 75° East 222 255 4,300 2,880 Climbing KA90
02:49PM 42.3867 -70.7822 87° East 227 261 8,800 3,420 Climbing Boston Center
02:50PM 42.3436 -70.7106 129° Southeast 268 308 12,100 3,060 Climbing Boston Center
02:51PM 42.2647 -70.6700 159° South 299 344 15,100 2,760 Climbing Boston Center
02:52PM 42.1778 -70.6336 163° South 324 373 17,800 2,400 Climbing Boston Center
02:53PM 42.0803 -70.6400 183° South 344 396 20,000 2,280 Climbing Boston Center
02:54PM 41.9925 -70.6789 198° South 344 396 22,500 2,340 Climbing Boston Center
02:55PM 41.9006 -70.7183 198° South 348 400 24,800 2,220 Climbing Boston Center
02:56PM 41.7919 -70.7806 203° Southwest 353 406 27,100 1,860 Climbing Boston Center
02:57PM 41.7236 -70.8728 225° Southwest 350 403 28,700 1,440 Climbing Boston Center
02:58PM 41.6606 -70.9708 229° Southwest 350 403 30,100 1,440 Climbing Boston Center
02:59PM 41.5953 -71.0678 228° Southwest 351 404 31,700 1,620 Climbing Boston Center
03:00PM 41.5358 -71.1594 229° Southwest 331 381 33,500 1,740 Climbing Boston Center
03:01PM 41.4828 -71.2378 228° Southwest 307 353 35,300 1,740 Climbing Boston Center
03:02PM 41.4333 -71.3131 229° Southwest 276 318 37,100 1,560 Climbing Boston Center
03:03PM 41.3869 -71.3825 228° Southwest 255 293 38,600 1,140 Climbing Boston Center
03:04PM 41.3297 -71.4567 224° Southwest 241 277 39,500 660 Climbing Boston Center
03:05PM 41.2825 -71.5200 225° Southwest 243 280 40,000 240 Climbing Boston Center
03:06PM 41.2342 -71.5856 226° Southwest 247 284 40,000  Level Boston Center
03:07PM 41.1831 -71.6542 225° Southwest 257 296 40,000  Level Boston Center
03:08PM 41.1303 -71.7239 225° Southwest 265 305 40,000  Level Boston Center
03:09PM 41.0781 -71.7928 225° Southwest 266 306 40,000  Level Boston Center
03:10PM 41.0242 -71.8636 225° Southwest 271 312 40,000  Level Boston Center
03:11PM 40.9653 -71.9436 226° Southwest 273 314 40,000  Level Boston Center
03:12PM 40.9222 -72.0003 225° Southwest 273 314 40,000  Level Boston Center
03:13PM 40.8575 -72.0853 225° Southwest 275 316 40,000  Level Boston Center
03:15PM 40.7483 -72.2267 224° Southwest 276 318 40,000  Level Boston Center
03:16PM 40.6931 -72.3003 225° Southwest 280 322 40,000  Level Boston Center
03:17PM 40.6389 -72.3711 225° Southwest 278 320 40,000  Level Boston Center
03:18PM 40.5847 -72.4422 225° Southwest 276 318 40,000  Level Boston Center
03:19PM 40.5303 -72.5119 224° Southwest 274 315 40,000  Level Boston Center
03:20PM 40.4764 -72.5825 225° Southwest 273 314 40,000  Level Boston Center
03:21PM 40.4119 -72.6656 224° Southwest 272 313 40,000  Level Boston Center
03:22PM 40.3578 -72.7347 224° Southwest 272 313 40,000  Level Boston Center
03:23PM 40.3036 -72.8044 224° Southwest 273 314 40,000  Level Boston Center
03:24PM 40.2508 -72.8739 225° Southwest 271 312 40,000  Level Boston Center
03:25PM 40.1986 -72.9392 224° Southwest 274 315 40,000  Level Boston Center
03:26PM 40.1556 -72.9933 224° Southwest 272 313 40,000  Level Boston Center
03:27PM 40.0792 -73.0911 224° Southwest 273 314 40,000  Level Boston Center
03:28PM 40.0244 -73.1600 224° Southwest 273 314 40,000  Level Boston Center
03:29PM 39.9700 -73.2297 224° Southwest 273 314 40,000  Level Boston Center
03:31PM 39.9164 -73.2986 225° Southwest 273 314 40,000  Level Washington Center
03:32PM 39.8497 -73.3817 224° Southwest 273 314 40,000  Level Washington Center
03:33PM 39.8019 -73.4417 224° Southwest 274 315 40,000  Level Washington Center
03:34PM 39.7481 -73.5108 225° Southwest 273 314 40,000  Level Washington Center
03:35PM 39.6808 -73.5944 224° Southwest 278 320 40,000  Level Washington Center
03:36PM 39.6250 -73.6628 223° Southwest 277 319 40,000  Level Washington Center
03:37PM 39.5694 -73.7331 224° Southwest 277 319 40,000  Level Washington Center
03:38PM 39.5136 -73.8022 224° Southwest 277 319 40,000  Level Washington Center
03:39PM 39.4578 -73.8711 224° Southwest 277 319 40,000  Level Washington Center
03:40PM 39.4008 -73.9406 223° Southwest 278 320 40,000  Level Washington Center
03:41PM 39.3336 -74.0233 224° Southwest 278 320 40,000  Level Washington Center
03:42PM 39.2772 -74.0931 224° Southwest 278 320 40,000  Level Washington Center
03:43PM 39.2214 -74.1633 224° Southwest 279 321 40,000  Level Washington Center
03:44PM 39.1644 -74.2314 223° Southwest 279 321 40,000  Level Washington Center
03:45PM 39.1075 -74.3008 223° Southwest 279 321 40,000  Level Washington Center
03:46PM 39.0500 -74.3697 223° Southwest 281 323 40,000  Level Washington Center
03:47PM 38.9817 -74.4525 223° Southwest 281 323 40,000  Level Washington Center
03:48PM 38.9247 -74.5228 224° Southwest 282 325 40,000  Level Washington Center
03:49PM 38.8675 -74.5911 223° Southwest 282 325 40,000  Level Washington Center
03:50PM 38.8108 -74.6603 224° Southwest 282 325 40,000  Level Washington Center
03:51PM 38.7536 -74.7272 222° Southwest 281 323 40,000  Level Washington Center
03:52PM 38.6931 -74.7928 220° Southwest 283 326 40,000  Level Washington Center
03:53PM 38.6194 -74.8700 219° Southwest 284 327 40,000  Level Washington Center
03:54PM 38.5589 -74.9367 221° Southwest 285 328 40,000  Level Washington Center
03:55PM 38.4981 -75.0017 220° Southwest 285 328 40,000  Level Washington Center
03:56PM 38.4356 -75.0642 218° Southwest 285 328 40,000  Level Washington Center
03:58PM 38.3733 -75.1297 220° Southwest 286 329 40,000  Level Washington Center
03:59PM 38.3036 -75.1856 212° Southwest 290 334 40,000  Level Washington Center
04:00PM 38.2217 -75.2542 213° Southwest 292 336 40,000  Level Washington Center
04:01PM 38.1528 -75.3106 213° Southwest 292 336 40,000  Level Washington Center
04:02PM 38.0853 -75.3689 214° Southwest 293 337 40,000  Level Washington Center
04:03PM 38.0164 -75.4278 214° Southwest 294 338 40,000  Level Washington Center
04:04PM 37.9486 -75.4856 214° Southwest 294 338 40,000  Level Washington Center
04:05PM 37.8667 -75.5547 214° Southwest 294 338 40,000  Level Washington Center
04:06PM 37.7983 -75.6131 214° Southwest 295 339 40,000  Level Washington Center
04:07PM 37.7294 -75.6700 213° Southwest 296 341 40,000  Level Washington Center
04:08PM 37.6653 -75.7308 217° Southwest 295 339 40,000  Level Washington Center
04:09PM 37.6106 -75.8028 226° Southwest 288 331 40,000  Level Washington Center
04:10PM 37.5592 -75.8786 229° Southwest 286 329 40,000  Level Washington Center
04:11PM 37.5039 -75.9708 233° Southwest 288 331 40,000  Level Washington Center
04:12PM 37.4342 -76.0286 213° Southwest 294 338 40,000  Level Washington Center
04:13PM 37.3647 -76.0817 211° Southwest 298 343 40,000  Level Washington Center
04:14PM 37.2944 -76.1353 211° Southwest 299 344 40,000  Level Washington Center
04:15PM 37.2197 -76.1917 211° Southwest 299 344 40,000  Level Washington Center
04:16PM 37.1492 -76.2458 211° Southwest 299 344 40,000  Level Washington Center
04:17PM 37.0636 -76.3106 211° Southwest 299 344 40,000  Level Washington Center
04:18PM 36.9914 -76.3644 211° Southwest 299 344 40,000  Level Washington Center
04:19PM 36.9206 -76.4175 211° Southwest 299 344 40,000  Level Washington Center
04:20PM 36.8492 -76.4722 212° Southwest 299 344 40,000  Level Washington Center
04:21PM 36.7772 -76.5256 211° Southwest 298 343 40,000  Level Washington Center
04:22PM 36.7003 -76.5839 211° Southwest 298 343 40,000  Level Washington Center
04:23PM 36.6275 -76.6394 211° Southwest 304 350 40,000  Level Washington Center
04:24PM 36.5556 -76.6917 210° Southwest 304 350 40,000  Level Washington Center
04:26PM 36.4839 -76.7458 211° Southwest 302 348 40,000  Level Washington Center
04:27PM 36.3978 -76.8094 211° Southwest 303 349 40,000  Level Washington Center
04:28PM 36.3256 -76.8636 211° Southwest 303 349 40,000  Level Washington Center
04:29PM 36.2517 -76.9175 210° Southwest 304 350 40,000  Level Washington Center
04:30PM 36.1789 -76.9722 211° Southwest 304 350 40,000  Level Washington Center
04:31PM 36.1056 -77.0267 211° Southwest 305 351 40,000  Level Washington Center
04:32PM 36.0156 -77.0903 210° Southwest 306 352 40,000  Level Washington Center
04:33PM 35.9417 -77.1436 210° Southwest 307 353 40,000  Level Washington Center
04:34PM 35.8683 -77.1975 211° Southwest 306 352 40,000  Level Washington Center
04:35PM 35.7961 -77.2500 211° Southwest 305 351 40,000  Level Washington Center
04:36PM 35.7239 -77.3025 211° Southwest 304 350 40,000  Level Washington Center
04:37PM 35.6517 -77.3547 210° Southwest 303 349 40,000  Level Washington Center
04:38PM 35.5644 -77.4169 210° Southwest 302 348 40,000  Level Washington Center
04:39PM 35.4936 -77.4694 211° Southwest 301 346 40,000  Level Washington Center
04:40PM 35.4217 -77.5208 210° Southwest 300 345 40,000  Level Washington Center
04:41PM 35.3508 -77.5761 212° Southwest 300 345 40,000  Level Washington Center
04:42PM 35.2858 -77.6378 218° Southwest 298 343 40,000  Level Washington Center
04:43PM 35.2003 -77.6678 196° South 316 364 40,000  Level Washington Center
04:44PM 35.0939 -77.6936 191° South 322 371 40,000  Level Washington Center
04:45PM 35.0042 -77.7147 191° South 323 372 40,000  Level Washington Center
04:46PM 34.9150 -77.7350 191° South 324 373 40,000  Level Washington Center
04:47PM 34.8208 -77.7581 191° South 324 373 40,000  Level Washington Center
04:48PM 34.7333 -77.7786 191° South 323 372 40,000  Level Washington Center
04:49PM 34.6464 -77.7994 191° South 320 368 40,000  Level Washington Center
04:50PM 34.5600 -77.8194 191° South 318 366 40,000  Level Washington Center
04:51PM 34.4728 -77.8389 190° South 318 366 40,000  Level Washington Center
04:52PM 34.3681 -77.8639 191° South 318 366 40,000  Level Washington Center
04:53PM 34.2842 -77.8831 191° South 319 367 40,000  Level Washington Center
04:54PM 34.1958 -77.9039 191° South 321 369 40,000  Level Washington Center
04:56PM 34.1078 -77.9258 192° South 321 369 40,000  Level Washington Center
04:57PM 34.0011 -77.9481 190° South 321 369 40,000  Level Washington Center
04:58PM 33.9136 -77.9678 191° South 321 369 40,000  Level Washington Center
04:59PM 33.8275 -77.9872 191° South 323 372 40,000  Level Washington Center
05:00PM 33.7389 -78.0083 191° South 326 375 40,000  Level Washington Center
05:01PM 33.6503 -78.0289 191° South 325 374 40,000  Level Washington Center
05:02PM 33.5433 -78.0533 191° South 326 375 40,000  Level Washington Center
05:03PM 33.4553 -78.0744 191° South 325 374 40,000  Level Washington Center
05:04PM 33.3650 -78.0936 190° South 326 375 40,000  Level Washington Center
05:05PM 33.2750 -78.1150 191° South 327 376 40,000 -60 Level Washington Center
05:06PM 33.1847 -78.1353 191° South 328 377 39,900  Descending Washington Center
05:07PM 33.0756 -78.1603 191° South 330 380 40,000  Climbing Washington Center
05:08PM 32.9453 -78.1872 190° South 331 381 40,000  Level Jacksonville Center
05:09PM 32.8522 -78.2094 191° South 331 381 40,000  Level Jacksonville Center
05:10PM 32.7633 -78.2314 192° South 331 381 40,000  Level Jacksonville Center
05:11PM 32.6722 -78.2508 190° South 331 381 40,000  Level Jacksonville Center
05:12PM 32.5789 -78.2703 190° South 336 387 40,000  Level Jacksonville Center
05:13PM 32.4878 -78.2922 191° South 336 387 40,000  Level Jacksonville Center
05:14PM 32.3947 -78.3117 190° South 336 387 40,000  Level Jacksonville Center
05:15PM 32.2953 -78.3364 192° South 347 399 40,000  Level Jacksonville Center
05:16PM 32.2064 -78.3581 192° South 352 405 40,000  Level Jacksonville Center
05:17PM 32.1111 -78.3750 189° South 352 405 40,000  Level Jacksonville Center
05:18PM 32.0178 -78.3967 191° South 347 399 40,000  Level Jacksonville Center
05:19PM 31.9247 -78.4183 191° South 352 405 40,000  Level Jacksonville Center
05:20PM 31.8294 -78.4400 191° South 352 405 40,000  Level Jacksonville Center
05:21PM 31.7383 -78.4592 190° South 347 399 40,000  Level Jacksonville Center
05:22PM 31.6450 -78.4806 191° South 347 399 40,000  Level Jacksonville Center
05:23PM 31.5517 -78.4997 190° South 347 399 40,000  Level Jacksonville Center
05:24PM 31.4564 -78.5211 191° South 352 405 40,000  Level Jacksonville Center
05:25PM 31.3653 -78.5400 190° South 352 405 40,000  Level Jacksonville Center
05:26PM 31.2700 -78.5592 190° South 352 405 40,000  Level Jacksonville Center
05:27PM 31.1725 -78.5781 189° South 352 405 40,000  Level Jacksonville Center
05:28PM 31.0814 -78.5969 190° South 352 405 40,000  Level Jacksonville Center
05:29PM 30.9919 -78.6131 189° South 352 405 40,000  Level Jacksonville Center
05:30PM 30.8903 -78.6297 188° South 357 411 40,000  Level Jacksonville Center
05:31PM 30.7950 -78.6486 190° South 358 412 40,000  Level Jacksonville Center
05:32PM 30.6975 -78.6675 189° South 358 412 40,000  Level Jacksonville Center
05:33PM 30.6019 -78.6861 190° South 358 412 40,000 -60 Level Jacksonville Center
05:34PM 30.5067 -78.7072 191° South 358 412 39,900  Descending Jacksonville Center
05:35PM 30.4133 -78.7233 188° South 348 400 40,000  Climbing Jacksonville Center
05:37PM 30.2844 -78.7486 190° South 333 383 40,000  Level Miami Center
05:38PM 30.1883 -78.7658 189° South 346 398 40,000  Level Miami Center
05:39PM 30.0986 -78.7836 190° South 346 398 40,000  Level Miami Center
05:40PM 30.0003 -78.8033 190° South 358 412 40,000  Level Miami Center
05:41PM 29.9083 -78.8233 191° South 352 405 40,000  Level Miami Center
05:42PM 29.8142 -78.8431 190° South 348 400 40,000  Level Miami Center
05:43PM 29.7222 -78.8606 189° South 353 406 40,000  Level Miami Center
05:44PM 29.6178 -78.8706 185° South 359 413 40,000  Level Miami Center
05:45PM 29.5297 -78.8950 194° South 355 409 40,000  Level Miami Center
05:46PM 29.4150 -78.8931 179° South 365 420 40,000  Level Miami Center
05:47PM 29.3189 -78.9103 189° South 371 427 40,000  Level Miami Center
05:48PM 29.2144 -78.9225 186° South 376 433 40,000  Level Miami Center
05:49PM 29.1142 -78.9350 186° South 371 427 40,000  Level Miami Center
05:50PM 29.0075 -78.9472 186° South 371 427 40,000  Level Miami Center
05:51PM 28.9072 -78.9619 187° South 371 427 40,000  Level Miami Center
05:52PM 28.8025 -78.9742 186° South 371 427 40,000  Level Miami Center
05:53PM 28.7042 -78.9911 189° South 371 427 40,000  Level Miami Center
05:54PM 28.6019 -79.0058 187° South 371 427 40,000  Level Miami Center
05:55PM 28.4994 -79.0156 185° South 371 427 40,000  Level Miami Center
05:56PM 28.4031 -79.0303 188° South 366 421 40,000  Level Miami Center
05:57PM 28.3028 -79.0494 190° South 366 421 40,000  Level Miami Center
05:58PM 28.2083 -79.0783 195° South 366 421 40,000  Level Miami Center
05:59PM 28.1119 -79.1072 195° South 360 414 40,000 -60 Level Miami Center
06:00PM 28.0153 -79.1358 195° South 360 414 39,900 -600 Descending Miami Center
06:01PM 27.9208 -79.1667 196° South 360 414 38,900 -960 Descending Miami Center
06:02PM 27.8267 -79.1931 194° South 354 407 38,000 -900 Descending Miami Center
06:03PM 27.7281 -79.2239 195° South 361 415 37,200 -900 Descending Miami Center
06:04PM 27.6314 -79.2547 196° South 368 423 36,200 -600 Descending Miami Center
06:05PM 27.5411 -79.2808 194° South 373 429 36,000 -120 Descending Miami Center
06:06PM 27.4383 -79.3114 195° South 378 435 36,000  Level Miami Center
06:07PM 27.3269 -79.3442 195° South 383 441 36,000 -120 Level Miami Center
06:08PM 27.2264 -79.3747 195° South 383 441 35,800 -1,200 Descending Miami Center
06:09PM 27.1233 -79.4075 196° South 382 440 33,700 -2,160 Descending Miami Center
06:10PM 27.0372 -79.4336 195° South 369 425 31,500 -2,160 Descending Miami Center
06:11PM 26.9386 -79.4642 195° South 369 425 29,400 -2,460 Descending Miami Center
06:12PM 26.8294 -79.4989 196° South 369 425 26,600 -2,700 Descending Miami Center
06:13PM 26.7553 -79.5508 212° Southwest 359 413 24,100 -2,880 Descending Miami Center
06:14PM 26.6786 -79.6303 223° Southwest 349 402 20,900 -2,580 Descending Miami Center
06:15PM 26.6211 -79.6917 224° Southwest 335 386 19,000 -1,980 Descending Miami Center
06:16PM 26.5611 -79.7600 226° Southwest 296 341 17,000 -1,320 Descending Miami Center
06:17PM 26.5122 -79.8097 222° Southwest 272 313 16,400 -660 Descending Miami Center
06:17PM 26.4742 -79.8319 208° Southwest 293 337 16,100 -420 Descending Miami Center
06:18PM 26.4342 -79.8519 204° Southwest 277 319 16,000  Descending Miami Center
06:18PM 26.4086 -79.8675 209° Southwest 280 322 16,100  Climbing Miami Center
06:19PM 26.3728 -79.8897 209° Southwest 282 325 16,000 -300 Descending Miami Center
06:19PM 26.3364 -79.9261 222° Southwest 286 329 15,800 -1,140 Descending Miami Center
06:20PM 26.3108 -79.9531 223° Southwest 282 325 14,900 -1,500 Descending Miami Center
06:20PM 26.2958 -79.9714 228° Southwest 266 306 14,600 -1,320 Descending Miami Center
06:21PM 26.2681 -79.9983 221° Southwest 276 318 13,600 -1,980 Descending Miami Center
06:21PM 26.2236 -80.0228 206° Southwest 275 316 12,400 -2,100 Descending Miami Center
06:22PM 26.1922 -80.0311 193° South 264 304 11,500 -1,680 Descending Miami Center
06:22PM 26.1500 -80.0439 195° South 259 298 10,700 -1,500 Descending Miami Center
06:23PM 26.1228 -80.0500 191° South 259 298 10,000 -840 Descending Miami Center
06:23PM 26.0786 -80.0650 197° South 200 230 9,800 -600 Descending Miami Center
06:24PM 26.0639 -80.0669 187° South 243 280 9,400 -1,020 Descending Miami Center
06:24PM 26.0303 -80.0775 196° South 207 238 8,900 -1,020 Descending Miami Center
06:25PM 26.0094 -80.0817 190° South 223 257 8,400 -840 Descending Miami Center
06:25PM 25.9736 -80.0947 198° South 191 220 8,100 -420 Descending Miami Center
06:26PM 25.9628 -80.1058 223° Southwest 204 235 8,000  Descending Miami Center
06:26PM 25.9369 -80.1422 232° Southwest 197 227 8,100  Climbing Miami Center
06:27PM 25.9303 -80.1558 241° Southwest 188 216 8,000  Descending Miami Center
06:27PM 25.9086 -80.1944 238° Southwest 193 222 8,100 -300 Climbing Miami Center
06:28PM 25.8928 -80.2472 252° West 191 220 7,600 -840 Descending Miami Center
06:29PM 25.9019 -80.3075 280° West 204 235 6,500 -780 Descending Miami Center
06:30PM 25.9131 -80.3631 283° West 199 229 6,100 -240 Descending Miami Center
06:31PM 25.9428 -80.4289 297° West 201 231 6,100 -120 Level Miami Center
06:32PM 25.9375 -80.4794 263° West 183 211 5,900 -600 Descending Miami Center
06:33PM 25.8967 -80.5153 218° Southwest 190 219 4,900 -1,140 Descending Miami Center
06:34PM 25.8450 -80.5019 167° South 191 220 3,500 -1,440 Descending Miami Center
06:35PM 25.8142 -80.4781 145° Southeast 159 183 2,100 -960 Descending Miami Center
06:36PM 25.8006 -80.4336 109° East 119 137 1,600 -240 Descending Miami Center
06:37PM 25.7972 -80.3967 96° East 128 147 1,700 -180 Climbing Miami Center
06:38PM 25.7983 -80.3528 88° East 133 153 1,300 -660 Descending Miami Center
06:39PM 25.8014 -80.3161 85° East 130 150 500 -900 Descending Miami Center
06:41PM 25.7954 -80.2901 103° East  Level Estimated